Oirschot, Netherlands
Current Conditions -  °F | °C
As of 10:31 AM on Monday 24 Nov 2014 (Local Time) from EHEH Reporting Station
Few Clouds Few Clouds  
Wind Chill: 46°   Ceiling: Unl
Heat Index: 46°   Visibility: 6mi
Dew Point: 45°   Wind: 3mph
Humidity: 93%   Direction: 220°SW
Pressure: 30.27"   Gusts: NA
Location:  51.51°N, 5.31°E
Report Text: EHEH 240931Z AUTO 22003KT 9999 FEW150 08/07 Q1025 BLU 24003KT CAVOK
Loading
Personal Weather Stations






























Interactive Weather Map New forecast layout! Learn more

10-Day Weather Forecast

Advertisements
Track Severe Weather on mobile